Map

Track Data

SID SEASON NUMBER BASIN SUBBASIN NAME ISO_TIME NATURE LAT LON WMO_WIND WMO_PRES WMO_AGENCY TRACK_TYPE DIST2LAND LANDFALL IFLAG USA_AGENCY USA_ATCF_ID USA_LAT USA_LON USA_RECORD USA_STATUS USA_WIND USA_PRES USA_SSHS USA_R34_NE USA_R34_SE USA_R34_SW USA_R34_NW USA_R50_NE USA_R50_SE USA_R50_SW USA_R50_NW USA_R64_NE USA_R64_SE USA_R64_SW USA_R64_NW USA_POCI USA_ROCI USA_RMW USA_EYE TOKYO_LAT TOKYO_LON TOKYO_GRADE TOKYO_WIND TOKYO_PRES TOKYO_R50_DIR TOKYO_R50_LONG TOKYO_R50_SHORT TOKYO_R30_DIR TOKYO_R30_LONG TOKYO_R30_SHORT TOKYO_LAND CMA_LAT CMA_LON CMA_CAT CMA_WIND CMA_PRES HKO_LAT HKO_LON HKO_CAT HKO_WIND HKO_PRES NEWDELHI_LAT NEWDELHI_LON NEWDELHI_GRADE NEWDELHI_WIND NEWDELHI_PRES NEWDELHI_CI NEWDELHI_DP NEWDELHI_POCI REUNION_LAT REUNION_LON REUNION_TYPE REUNION_WIND REUNION_PRES REUNION_TNUM REUNION_CI REUNION_RMW REUNION_R34_NE REUNION_R34_SE REUNION_R34_SW REUNION_R34_NW REUNION_R50_NE REUNION_R50_SE REUNION_R50_SW REUNION_R50_NW REUNION_R64_NE REUNION_R64_SE REUNION_R64_SW REUNION_R64_NW BOM_LAT BOM_LON BOM_TYPE BOM_WIND BOM_PRES BOM_TNUM BOM_CI BOM_RMW BOM_R34_NE BOM_R34_SE BOM_R34_SW BOM_R34_NW BOM_R50_NE BOM_R50_SE BOM_R50_SW BOM_R50_NW BOM_R64_NE BOM_R64_SE BOM_R64_SW BOM_R64_NW BOM_ROCI BOM_POCI BOM_EYE BOM_POS_METHOD BOM_PRES_METHOD NADI_LAT NADI_LON NADI_CAT NADI_WIND NADI_PRES WELLINGTON_LAT WELLINGTON_LON WELLINGTON_WIND WELLINGTON_PRES DS824_LAT DS824_LON DS824_STAGE DS824_WIND DS824_PRES TD9636_LAT TD9636_LON TD9636_STAGE TD9636_WIND TD9636_PRES TD9635_LAT TD9635_LON TD9635_WIND TD9635_PRES TD9635_ROCI NEUMANN_LAT NEUMANN_LON NEUMANN_CLASS NEUMANN_WIND NEUMANN_PRES MLC_LAT MLC_LON MLC_CLASS MLC_WIND MLC_PRES USA_GUST BOM_GUST BOM_GUST_PER REUNION_GUST REUNION_GUST_PER USA_SEAHGT USA_SEARAD_NE USA_SEARAD_SE USA_SEARAD_SW USA_SEARAD_NW STORM_SPEED STORM_DIR
1921203N20123 1921 32 WP MM NOT_NAMED 1921-07-22 10:00:00 NR 20.0000 123.200 main 202 197 __________O___ -1 20.0000 123.200 4 9 296
1921203N20123 1921 32 WP MM NOT_NAMED 1921-07-22 12:00:00 NR 20.1278 122.922 main 200 200 __________P___ -1 20.1278 122.922 4 9 294
1921203N20123 1921 32 WP MM NOT_NAMED 1921-07-22 15:00:00 NR 20.2961 122.503 main 213 208 __________P___ -1 20.2961 122.503 4 8 289
1921203N20123 1921 32 WP MM NOT_NAMED 1921-07-22 18:00:00 NR 20.4056 122.078 main 208 182 __________P___ -1 20.4056 122.078 4 8 279
1921203N20123 1921 32 WP MM NOT_NAMED 1921-07-22 21:00:00 NR 20.4215 121.646 main 182 178 __________P___ -1 20.4215 121.646 4 8 269
1921203N20123 1921 32 WP MM NOT_NAMED 1921-07-22 22:00:00 NR 20.4000 121.500 main 178 172 __________O___ -1 20.4000 121.500 4 9 255
1921203N20123 1921 32 WP MM NOT_NAMED 1921-07-23 00:00:00 NR 20.3138 121.204 main 181 167 __________P___ -1 20.3138 121.204 4 9 248
1921203N20123 1921 32 WP MM NOT_NAMED 1921-07-23 03:00:00 NR 20.1086 120.749 main 168 151 __________P___ -1 20.1086 120.749 4 10 243
1921203N20123 1921 32 WP MM NOT_NAMED 1921-07-23 06:00:00 NR 19.8679 120.274 main 154 148 __________P___ -1 19.8679 120.274 4 10 244
1921203N20123 1921 32 WP MM NOT_NAMED 1921-07-23 09:00:00 NR 19.6543 119.774 main 161 160 __________P___ -1 19.6543 119.774 4 10 247
1921203N20123 1921 32 WP MM NOT_NAMED 1921-07-23 10:00:00 NR 19.6000 119.600 main 168 168 __________O___ -1 19.6000 119.600 4 10 257
1921203N20123 1921 32 WP MM NOT_NAMED 1921-07-23 12:00:00 NR 19.5412 119.237 main 191 191 __________P___ -1 19.5412 119.237 4 11 264
1921203N20123 1921 32 WP MM NOT_NAMED 1921-07-23 15:00:00 NR 19.5032 118.667 main 234 243 __________P___ -1 19.5032 118.667 4 11 269
1921203N20123 1921 32 WP MM NOT_NAMED 1921-07-23 18:00:00 NR 19.5170 118.081 main 290 299 __________P___ -1 19.5170 118.081 4 11 274
1921203N20123 1921 32 WP MM NOT_NAMED 1921-07-23 21:00:00 NR 19.5733 117.493 main 352 352 __________P___ -1 19.5733 117.493 4 11 276
1921203N20123 1921 32 WP MM NOT_NAMED 1921-07-23 22:00:00 NR 19.6000 117.300 main 372 354 __________O___ -1 19.6000 117.300 4 11 279
1921203N20123 1921 32 WP MM NOT_NAMED 1921-07-24 00:00:00 NR 19.6542 116.936 main 354 330 __________P___ -1 19.6542 116.936 4 10 281
1921203N20123 1921 32 WP MM NOT_NAMED 1921-07-24 03:00:00 NR 19.7673 116.396 main 330 308 __________P___ -1 19.7673 116.396 4 11 284
1921203N20123 1921 32 WP MM NOT_NAMED 1921-07-24 06:00:00 NR 19.9051 115.852 main 308 266 __________P___ -1 19.9051 115.852 4 11 285
1921203N20123 1921 32 WP MM NOT_NAMED 1921-07-24 09:00:00 NR 20.0518 115.292 main 266 259 __________P___ -1 20.0518 115.292 4 11 285
1921203N20123 1921 32 WP MM NOT_NAMED 1921-07-24 10:00:00 NR 20.1000 115.100 main 259 238 __________O___ -1 20.1000 115.100 4 12 283
1921203N20123 1921 32 WP MM NOT_NAMED 1921-07-24 12:00:00 NR 20.1861 114.685 main 238 206 __________P___ -1 20.1861 114.685 4 12 282
1921203N20123 1921 32 WP MM NOT_NAMED 1921-07-24 15:00:00 NR 20.3154 114.043 main 206 172 __________P___ -1 20.3154 114.043 4 12 282
1921203N20123 1921 32 WP MM NOT_NAMED 1921-07-24 18:00:00 NR 20.4416 113.402 main 172 133 __________P___ -1 20.4416 113.402 4 12 282
1921203N20123 1921 32 WP MM NOT_NAMED 1921-07-24 21:00:00 NR 20.5618 112.792 main 133 126 __________P___ -1 20.5618 112.792 4 12 282
1921203N20123 1921 32 WP MM NOT_NAMED 1921-07-24 22:00:00 NR 20.6000 112.600 main 126 108 __________O___ -1 20.6000 112.600 4 11 282
1921203N20123 1921 32 WP MM NOT_NAMED 1921-07-25 00:00:00 NR 20.6691 112.241 main 108 78 __________P___ -1 20.6691 112.241 4 10 282
1921203N20123 1921 32 WP MM NOT_NAMED 1921-07-25 03:00:00 NR 20.7670 111.740 main 78 55 __________P___ -1 20.7670 111.740 4 9 282
1921203N20123 1921 32 WP MM NOT_NAMED 1921-07-25 06:00:00 NR 20.8634 111.277 main 55 30 __________P___ -1 20.8634 111.277 4 9 283
1921203N20123 1921 32 WP MM NOT_NAMED 1921-07-25 09:00:00 NR 20.9643 110.841 main 30 24 __________P___ -1 20.9643 110.841 4 8 284
1921203N20123 1921 32 WP MM NOT_NAMED 1921-07-25 10:00:00 NR 21.0000 110.700 main 24 10 __________O___ -1 21.0000 110.700 4 8 286
1921203N20123 1921 32 WP MM NOT_NAMED 1921-07-25 12:00:00 NR 21.0752 110.423 main 10 0 __________P___ -1 21.0752 110.423 4 8 287
1921203N20123 1921 32 WP MM NOT_NAMED 1921-07-25 15:00:00 NR 21.1963 110.019 main 0 0 __________P___ -1 21.1963 110.019 4 8 288
1921203N20123 1921 32 WP MM NOT_NAMED 1921-07-25 18:00:00 NR 21.3243 109.622 main 20 0 __________P___ -1 21.3243 109.622 4 8 289
1921203N20123 1921 32 WP MM NOT_NAMED 1921-07-25 21:00:00 NR 21.4559 109.230 main 0 0 __________P___ -1 21.4559 109.230 4 8 290
1921203N20123 1921 32 WP MM NOT_NAMED 1921-07-25 22:00:00 NR 21.5000 109.100 main 10 __________O___ -1 21.5000 109.100 4 8 291

Digital Typhoon Data and Search

About IBTrACS Database

This database is a web-friendly format of International Best Track Archive for Climate Stewardship (IBTrACS), a global best track data archive curated by NOAA dating back to 1842.

Updated: 2021-12-03